Terminal Aerodrome Forecast
Issued by NWS Wilmington, OH

Current Version | Previous Version | Graphics & Text | Print | Product List | Glossary On
Versions: 1 2 3 4 5 6 7 8 9 10 11 12 13 14 15 16 17
000
FTUS41 KILN 211100
TAFCMH
TAF
KCMH 211120Z 2112/2212 17003KT P6SM SCT200
     FM211500 21008KT P6SM BKN150
     FM211900 23013KT P6SM FEW060 BKN150
     FM220500 23010KT P6SM VCSH OVC080
     FM220900 24012KT P6SM -SHRA SCT015 OVC080=

USA.gov is the U.S. government's official web portal to all federal, state and local government web resources and services.